sensor_id;sensor_type;location;lat;lon;timestamp;temperature;humidity
15543;DHT22;7873;52.230;12.856;2023-02-07T00:00:30;25.70;32.90
15543;DHT22;7873;52.230;12.856;2023-02-07T00:02:58;25.60;32.90
15543;DHT22;7873;52.230;12.856;2023-02-07T00:05:26;25.60;33.00
15543;DHT22;7873;52.230;12.856;2023-02-07T00:07:53;25.50;33.00
15543;DHT22;7873;52.230;12.856;2023-02-07T00:10:20;25.50;33.10
15543;DHT22;7873;52.230;12.856;2023-02-07T00:12:47;25.40;33.00
15543;DHT22;7873;52.230;12.856;2023-02-07T00:15:14;25.40;33.20
15543;DHT22;7873;52.230;12.856;2023-02-07T00:17:41;25.30;34.00
15543;DHT22;7873;52.230;12.856;2023-02-07T00:20:10;25.30;33.40
15543;DHT22;7873;52.230;12.856;2023-02-07T00:22:37;25.30;33.50
15543;DHT22;7873;52.230;12.856;2023-02-07T00:25:04;25.20;33.50
15543;DHT22;7873;52.230;12.856;2023-02-07T00:27:30;25.20;33.50
15543;DHT22;7873;52.230;12.856;2023-02-07T00:29:57;25.10;33.60
15543;DHT22;7873;52.230;12.856;2023-02-07T00:32:24;25.10;33.60
15543;DHT22;7873;52.230;12.856;2023-02-07T00:34:51;25.10;33.60
15543;DHT22;7873;52.230;12.856;2023-02-07T00:37:18;25.10;33.80
15543;DHT22;7873;52.230;12.856;2023-02-07T00:39:45;25.10;33.80
15543;DHT22;7873;52.230;12.856;2023-02-07T00:42:12;25.00;33.80
15543;DHT22;7873;52.230;12.856;2023-02-07T00:44:38;25.00;33.80
15543;DHT22;7873;52.230;12.856;2023-02-07T00:47:05;25.00;33.80
15543;DHT22;7873;52.230;12.856;2023-02-07T00:49:32;25.00;33.80
15543;DHT22;7873;52.230;12.856;2023-02-07T00:51:58;25.00;34.00
15543;DHT22;7873;52.230;12.856;2023-02-07T00:54:26;25.00;33.90
15543;DHT22;7873;52.230;12.856;2023-02-07T00:56:53;24.90;34.10
15543;DHT22;7873;52.230;12.856;2023-02-07T00:59:20;24.90;34.00
15543;DHT22;7873;52.230;12.856;2023-02-07T01:01:46;24.90;34.00
15543;DHT22;7873;52.230;12.856;2023-02-07T01:04:13;24.80;34.10
15543;DHT22;7873;52.230;12.856;2023-02-07T01:06:40;24.80;34.20
15543;DHT22;7873;52.230;12.856;2023-02-07T01:09:06;24.80;34.20
15543;DHT22;7873;52.230;12.856;2023-02-07T01:11:34;24.70;34.30
15543;DHT22;7873;52.230;12.856;2023-02-07T01:14:01;24.70;34.30
15543;DHT22;7873;52.230;12.856;2023-02-07T01:16:28;24.70;34.40
15543;DHT22;7873;52.230;12.856;2023-02-07T01:18:57;24.60;34.50
15543;DHT22;7873;52.230;12.856;2023-02-07T01:21:26;24.60;34.50
15543;DHT22;7873;52.230;12.856;2023-02-07T01:23:52;24.60;34.50
15543;DHT22;7873;52.230;12.856;2023-02-07T01:26:21;24.60;34.60
15543;DHT22;7873;52.230;12.856;2023-02-07T01:28:50;24.50;34.50
15543;DHT22;7873;52.230;12.856;2023-02-07T01:31:17;24.50;34.60
15543;DHT22;7873;52.230;12.856;2023-02-07T01:33:43;24.50;34.60
15543;DHT22;7873;52.230;12.856;2023-02-07T01:36:11;24.50;34.80
15543;DHT22;7873;52.230;12.856;2023-02-07T01:38:40;24.40;34.80
15543;DHT22;7873;52.230;12.856;2023-02-07T01:41:08;24.40;34.80
15543;DHT22;7873;52.230;12.856;2023-02-07T01:46:25;24.30;35.10
15543;DHT22;7873;52.230;12.856;2023-02-07T01:48:52;24.30;35.10
15543;DHT22;7873;52.230;12.856;2023-02-07T01:51:21;24.30;35.20
15543;DHT22;7873;52.230;12.856;2023-02-07T01:53:50;24.30;35.20
15543;DHT22;7873;52.230;12.856;2023-02-07T01:56:21;24.20;35.20
15543;DHT22;7873;52.230;12.856;2023-02-07T01:58:49;24.20;35.20
15543;DHT22;7873;52.230;12.856;2023-02-07T02:01:18;24.20;35.30
15543;DHT22;7873;52.230;12.856;2023-02-07T02:03:49;24.10;35.30
15543;DHT22;7873;52.230;12.856;2023-02-07T02:06:18;24.10;35.30
15543;DHT22;7873;52.230;12.856;2023-02-07T02:08:46;24.10;35.40
15543;DHT22;7873;52.230;12.856;2023-02-07T02:11:18;24.10;35.50
15543;DHT22;7873;52.230;12.856;2023-02-07T02:13:55;24.10;35.50
15543;DHT22;7873;52.230;12.856;2023-02-07T02:16:32;24.00;35.40
15543;DHT22;7873;52.230;12.856;2023-02-07T02:19:09;24.00;35.50
15543;DHT22;7873;52.230;12.856;2023-02-07T02:21:57;24.00;35.50
15543;DHT22;7873;52.230;12.856;2023-02-07T02:30:53;23.90;35.60
15543;DHT22;7873;52.230;12.856;2023-02-07T02:33:40;23.90;35.70
15543;DHT22;7873;52.230;12.856;2023-02-07T02:36:12;23.90;35.50
15543;DHT22;7873;52.230;12.856;2023-02-07T02:38:48;23.90;35.60
15543;DHT22;7873;52.230;12.856;2023-02-07T02:41:22;23.80;35.70
15543;DHT22;7873;52.230;12.856;2023-02-07T02:43:55;23.80;35.40
15543;DHT22;7873;52.230;12.856;2023-02-07T02:46:25;23.80;35.70
15543;DHT22;7873;52.230;12.856;2023-02-07T02:48:56;23.80;35.60
15543;DHT22;7873;52.230;12.856;2023-02-07T02:51:23;23.70;35.40
15543;DHT22;7873;52.230;12.856;2023-02-07T02:53:54;23.70;35.60
15543;DHT22;7873;52.230;12.856;2023-02-07T02:56:41;23.70;35.80
15543;DHT22;7873;52.230;12.856;2023-02-07T02:59:24;23.70;35.60
15543;DHT22;7873;52.230;12.856;2023-02-07T03:02:01;23.60;35.60
15543;DHT22;7873;52.230;12.856;2023-02-07T03:04:47;23.60;35.50
15543;DHT22;7873;52.230;12.856;2023-02-07T03:07:28;23.60;35.50
15543;DHT22;7873;52.230;12.856;2023-02-07T03:10:09;23.60;35.70
15543;DHT22;7873;52.230;12.856;2023-02-07T03:12:44;23.60;35.70
15543;DHT22;7873;52.230;12.856;2023-02-07T03:15:17;23.60;35.70
15543;DHT22;7873;52.230;12.856;2023-02-07T03:17:52;23.50;35.70
15543;DHT22;7873;52.230;12.856;2023-02-07T03:20:25;23.50;35.60
15543;DHT22;7873;52.230;12.856;2023-02-07T03:22:56;23.50;35.70
15543;DHT22;7873;52.230;12.856;2023-02-07T03:25:24;23.50;35.60
15543;DHT22;7873;52.230;12.856;2023-02-07T03:27:53;23.50;35.70
15543;DHT22;7873;52.230;12.856;2023-02-07T03:30:22;23.50;35.70
15543;DHT22;7873;52.230;12.856;2023-02-07T03:32:54;23.40;35.60
15543;DHT22;7873;52.230;12.856;2023-02-07T03:35:26;23.40;35.80
15543;DHT22;7873;52.230;12.856;2023-02-07T03:37:57;23.40;35.70
15543;DHT22;7873;52.230;12.856;2023-02-07T03:40:26;23.40;35.70
15543;DHT22;7873;52.230;12.856;2023-02-07T03:42:55;23.40;35.70
15543;DHT22;7873;52.230;12.856;2023-02-07T03:45:25;23.30;35.60
15543;DHT22;7873;52.230;12.856;2023-02-07T03:47:52;23.30;35.90
15543;DHT22;7873;52.230;12.856;2023-02-07T03:50:18;23.30;35.60
15543;DHT22;7873;52.230;12.856;2023-02-07T03:52:46;23.30;35.70
15543;DHT22;7873;52.230;12.856;2023-02-07T03:55:13;23.20;35.70
15543;DHT22;7873;52.230;12.856;2023-02-07T03:57:40;23.20;35.50
15543;DHT22;7873;52.230;12.856;2023-02-07T04:00:07;23.20;35.80
15543;DHT22;7873;52.230;12.856;2023-02-07T04:02:35;23.20;35.70
15543;DHT22;7873;52.230;12.856;2023-02-07T04:05:01;23.20;35.80
15543;DHT22;7873;52.230;12.856;2023-02-07T04:07:28;23.20;35.60
15543;DHT22;7873;52.230;12.856;2023-02-07T04:09:56;23.10;35.70
15543;DHT22;7873;52.230;12.856;2023-02-07T04:12:23;23.20;35.70
15543;DHT22;7873;52.230;12.856;2023-02-07T04:14:57;23.10;35.50
15543;DHT22;7873;52.230;12.856;2023-02-07T04:17:23;23.10;35.60
15543;DHT22;7873;52.230;12.856;2023-02-07T04:19:50;23.10;35.60
15543;DHT22;7873;52.230;12.856;2023-02-07T04:22:17;23.10;35.50
15543;DHT22;7873;52.230;12.856;2023-02-07T04:24:43;23.10;35.60
15543;DHT22;7873;52.230;12.856;2023-02-07T04:27:12;23.10;35.90
15543;DHT22;7873;52.230;12.856;2023-02-07T04:29:38;23.10;35.80
15543;DHT22;7873;52.230;12.856;2023-02-07T04:32:05;23.10;35.70
15543;DHT22;7873;52.230;12.856;2023-02-07T04:34:32;23.10;35.70
15543;DHT22;7873;52.230;12.856;2023-02-07T04:36:59;23.10;35.80
15543;DHT22;7873;52.230;12.856;2023-02-07T04:39:26;23.10;35.90
15543;DHT22;7873;52.230;12.856;2023-02-07T04:41:53;23.00;36.00
15543;DHT22;7873;52.230;12.856;2023-02-07T04:44:21;23.00;35.20
15543;DHT22;7873;52.230;12.856;2023-02-07T04:46:47;23.00;33.70
15543;DHT22;7873;52.230;12.856;2023-02-07T04:49:14;23.00;34.40
15543;DHT22;7873;52.230;12.856;2023-02-07T04:51:41;23.10;33.70
15543;DHT22;7873;52.230;12.856;2023-02-07T04:54:07;23.20;32.40
15543;DHT22;7873;52.230;12.856;2023-02-07T04:56:34;23.20;31.90
15543;DHT22;7873;52.230;12.856;2023-02-07T04:59:01;23.30;31.90
15543;DHT22;7873;52.230;12.856;2023-02-07T05:01:29;23.40;32.30
15543;DHT22;7873;52.230;12.856;2023-02-07T05:03:55;23.40;32.90
15543;DHT22;7873;52.230;12.856;2023-02-07T05:06:22;23.40;32.60
15543;DHT22;7873;52.230;12.856;2023-02-07T05:08:49;23.40;32.90
15543;DHT22;7873;52.230;12.856;2023-02-07T05:11:15;23.50;33.00
15543;DHT22;7873;52.230;12.856;2023-02-07T05:13:42;23.50;33.00
15543;DHT22;7873;52.230;12.856;2023-02-07T05:16:09;23.50;32.90
15543;DHT22;7873;52.230;12.856;2023-02-07T05:18:37;23.50;33.10
15543;DHT22;7873;52.230;12.856;2023-02-07T05:21:04;23.50;32.10
15543;DHT22;7873;52.230;12.856;2023-02-07T05:23:31;23.40;32.60
15543;DHT22;7873;52.230;12.856;2023-02-07T05:25:57;23.40;32.20
15543;DHT22;7873;52.230;12.856;2023-02-07T05:28:24;23.40;31.90
15543;DHT22;7873;52.230;12.856;2023-02-07T05:30:51;23.30;32.80
15543;DHT22;7873;52.230;12.856;2023-02-07T05:33:19;23.20;32.60
15543;DHT22;7873;52.230;12.856;2023-02-07T05:35:46;23.10;29.50
15543;DHT22;7873;52.230;12.856;2023-02-07T05:38:14;22.40;24.80
15543;DHT22;7873;52.230;12.856;2023-02-07T05:40:42;21.90;26.20
15543;DHT22;7873;52.230;12.856;2023-02-07T05:43:09;21.90;28.30
15543;DHT22;7873;52.230;12.856;2023-02-07T05:45:36;21.90;28.80
15543;DHT22;7873;52.230;12.856;2023-02-07T05:48:03;22.00;28.50
15543;DHT22;7873;52.230;12.856;2023-02-07T05:50:30;22.10;29.00
15543;DHT22;7873;52.230;12.856;2023-02-07T05:52:58;22.20;29.30
15543;DHT22;7873;52.230;12.856;2023-02-07T05:55:25;22.20;29.50
15543;DHT22;7873;52.230;12.856;2023-02-07T05:57:52;22.20;29.60
15543;DHT22;7873;52.230;12.856;2023-02-07T06:00:18;22.30;30.00
15543;DHT22;7873;52.230;12.856;2023-02-07T06:02:45;22.30;30.10
15543;DHT22;7873;52.230;12.856;2023-02-07T06:05:14;22.40;31.30
15543;DHT22;7873;52.230;12.856;2023-02-07T06:07:42;22.60;31.00
15543;DHT22;7873;52.230;12.856;2023-02-07T06:10:10;22.70;30.30
15543;DHT22;7873;52.230;12.856;2023-02-07T06:12:38;22.90;30.30
15543;DHT22;7873;52.230;12.856;2023-02-07T06:15:05;22.90;30.40
15543;DHT22;7873;52.230;12.856;2023-02-07T06:17:32;23.00;30.30
15543;DHT22;7873;52.230;12.856;2023-02-07T06:19:59;23.00;30.20
15543;DHT22;7873;52.230;12.856;2023-02-07T06:22:26;23.00;30.50
15543;DHT22;7873;52.230;12.856;2023-02-07T06:24:53;23.10;30.70
15543;DHT22;7873;52.230;12.856;2023-02-07T06:27:20;23.10;30.70
15543;DHT22;7873;52.230;12.856;2023-02-07T06:29:47;23.10;30.90
15543;DHT22;7873;52.230;12.856;2023-02-07T06:32:14;23.10;31.10
15543;DHT22;7873;52.230;12.856;2023-02-07T06:34:41;23.10;31.00
15543;DHT22;7873;52.230;12.856;2023-02-07T06:37:07;23.00;31.00
15543;DHT22;7873;52.230;12.856;2023-02-07T06:39:34;23.00;31.10
15543;DHT22;7873;52.230;12.856;2023-02-07T06:42:01;23.10;31.40
15543;DHT22;7873;52.230;12.856;2023-02-07T06:44:29;23.00;31.40
15543;DHT22;7873;52.230;12.856;2023-02-07T06:46:55;23.00;31.30
15543;DHT22;7873;52.230;12.856;2023-02-07T06:49:22;23.00;31.30
15543;DHT22;7873;52.230;12.856;2023-02-07T06:51:48;23.00;31.40
15543;DHT22;7873;52.230;12.856;2023-02-07T06:54:15;23.00;31.50
15543;DHT22;7873;52.230;12.856;2023-02-07T06:56:42;23.00;31.40
15543;DHT22;7873;52.230;12.856;2023-02-07T06:59:08;23.00;31.40
15543;DHT22;7873;52.230;12.856;2023-02-07T07:01:37;23.00;31.50
15543;DHT22;7873;52.230;12.856;2023-02-07T07:04:04;23.00;31.60
15543;DHT22;7873;52.230;12.856;2023-02-07T07:06:31;23.00;31.60
15543;DHT22;7873;52.230;12.856;2023-02-07T07:08:57;23.00;31.50
15543;DHT22;7873;52.230;12.856;2023-02-07T07:11:24;23.00;31.70
15543;DHT22;7873;52.230;12.856;2023-02-07T07:13:51;23.00;31.70
15543;DHT22;7873;52.230;12.856;2023-02-07T07:16:18;23.00;31.70
15543;DHT22;7873;52.230;12.856;2023-02-07T07:18:46;23.00;31.80
15543;DHT22;7873;52.230;12.856;2023-02-07T07:21:12;22.90;31.80
15543;DHT22;7873;52.230;12.856;2023-02-07T07:23:39;23.00;31.90
15543;DHT22;7873;52.230;12.856;2023-02-07T07:26:06;22.90;31.90
15543;DHT22;7873;52.230;12.856;2023-02-07T07:28:33;22.90;31.90
15543;DHT22;7873;52.230;12.856;2023-02-07T07:31:03;22.90;31.90
15543;DHT22;7873;52.230;12.856;2023-02-07T07:33:31;22.90;32.00
15543;DHT22;7873;52.230;12.856;2023-02-07T07:35:59;22.90;32.00
15543;DHT22;7873;52.230;12.856;2023-02-07T07:38:27;22.90;32.10
15543;DHT22;7873;52.230;12.856;2023-02-07T07:40:54;22.90;32.00
15543;DHT22;7873;52.230;12.856;2023-02-07T07:43:20;22.90;32.00
15543;DHT22;7873;52.230;12.856;2023-02-07T07:45:50;22.90;31.90
15543;DHT22;7873;52.230;12.856;2023-02-07T07:48:18;22.90;31.80
15543;DHT22;7873;52.230;12.856;2023-02-07T07:50:45;22.90;31.80
15543;DHT22;7873;52.230;12.856;2023-02-07T07:53:13;23.00;31.80
15543;DHT22;7873;52.230;12.856;2023-02-07T07:55:40;23.00;31.70
15543;DHT22;7873;52.230;12.856;2023-02-07T07:58:07;23.00;31.70
15543;DHT22;7873;52.230;12.856;2023-02-07T08:00:33;23.00;31.70
15543;DHT22;7873;52.230;12.856;2023-02-07T08:03:00;23.00;31.70
15543;DHT22;7873;52.230;12.856;2023-02-07T08:05:26;23.00;31.70
15543;DHT22;7873;52.230;12.856;2023-02-07T08:07:53;23.00;31.60
15543;DHT22;7873;52.230;12.856;2023-02-07T08:10:21;23.00;31.60
15543;DHT22;7873;52.230;12.856;2023-02-07T08:12:48;23.10;31.60
15543;DHT22;7873;52.230;12.856;2023-02-07T08:15:15;23.10;31.50
15543;DHT22;7873;52.230;12.856;2023-02-07T08:17:41;23.00;31.60
15543;DHT22;7873;52.230;12.856;2023-02-07T08:20:08;23.00;31.50
15543;DHT22;7873;52.230;12.856;2023-02-07T08:22:36;23.10;31.60
15543;DHT22;7873;52.230;12.856;2023-02-07T08:25:03;23.10;31.60
15543;DHT22;7873;52.230;12.856;2023-02-07T08:27:32;23.10;31.40
15543;DHT22;7873;52.230;12.856;2023-02-07T08:29:59;23.10;31.60
15543;DHT22;7873;52.230;12.856;2023-02-07T08:32:26;23.20;31.30
15543;DHT22;7873;52.230;12.856;2023-02-07T08:34:53;23.20;31.20
15543;DHT22;7873;52.230;12.856;2023-02-07T08:37:20;23.20;31.10
15543;DHT22;7873;52.230;12.856;2023-02-07T08:39:47;23.20;31.20
15543;DHT22;7873;52.230;12.856;2023-02-07T08:42:17;23.40;31.00
15543;DHT22;7873;52.230;12.856;2023-02-07T08:44:46;23.40;30.80
15543;DHT22;7873;52.230;12.856;2023-02-07T08:47:13;23.50;30.60
15543;DHT22;7873;52.230;12.856;2023-02-07T08:49:40;23.50;30.70
15543;DHT22;7873;52.230;12.856;2023-02-07T08:52:07;23.60;30.60
15543;DHT22;7873;52.230;12.856;2023-02-07T08:54:35;23.60;30.40
15543;DHT22;7873;52.230;12.856;2023-02-07T08:57:02;23.50;30.50
15543;DHT22;7873;52.230;12.856;2023-02-07T08:59:28;23.60;30.60
15543;DHT22;7873;52.230;12.856;2023-02-07T09:01:56;23.60;30.60
15543;DHT22;7873;52.230;12.856;2023-02-07T09:04:23;23.60;30.40
15543;DHT22;7873;52.230;12.856;2023-02-07T09:06:51;23.60;30.60
15543;DHT22;7873;52.230;12.856;2023-02-07T09:09:17;23.60;30.60
15543;DHT22;7873;52.230;12.856;2023-02-07T09:11:44;23.60;30.50
15543;DHT22;7873;52.230;12.856;2023-02-07T09:14:11;23.60;30.50
15543;DHT22;7873;52.230;12.856;2023-02-07T09:16:37;23.60;30.60
15543;DHT22;7873;52.230;12.856;2023-02-07T09:19:06;23.60;30.60
15543;DHT22;7873;52.230;12.856;2023-02-07T09:21:32;23.60;30.60
15543;DHT22;7873;52.230;12.856;2023-02-07T09:24:01;23.60;30.60
15543;DHT22;7873;52.230;12.856;2023-02-07T09:26:28;23.50;30.80
15543;DHT22;7873;52.230;12.856;2023-02-07T09:28:57;23.50;31.50
15543;DHT22;7873;52.230;12.856;2023-02-07T09:31:24;23.50;30.70
15543;DHT22;7873;52.230;12.856;2023-02-07T09:33:50;23.50;30.80
15543;DHT22;7873;52.230;12.856;2023-02-07T09:36:19;23.60;30.70
15543;DHT22;7873;52.230;12.856;2023-02-07T09:38:48;23.60;30.70
15543;DHT22;7873;52.230;12.856;2023-02-07T09:41:18;23.60;30.60
15543;DHT22;7873;52.230;12.856;2023-02-07T09:43:53;23.60;30.60
15543;DHT22;7873;52.230;12.856;2023-02-07T09:46:29;23.60;30.40
15543;DHT22;7873;52.230;12.856;2023-02-07T09:49:01;23.60;30.60
15543;DHT22;7873;52.230;12.856;2023-02-07T09:51:33;23.60;30.60
15543;DHT22;7873;52.230;12.856;2023-02-07T09:54:01;23.60;30.40
15543;DHT22;7873;52.230;12.856;2023-02-07T09:56:32;23.60;30.60
15543;DHT22;7873;52.230;12.856;2023-02-07T09:59:02;23.60;30.70
15543;DHT22;7873;52.230;12.856;2023-02-07T10:01:33;23.60;30.60
15543;DHT22;7873;52.230;12.856;2023-02-07T10:04:11;23.60;30.80
15543;DHT22;7873;52.230;12.856;2023-02-07T10:06:49;23.50;30.80
15543;DHT22;7873;52.230;12.856;2023-02-07T10:09:18;23.50;30.90
15543;DHT22;7873;52.230;12.856;2023-02-07T10:11:50;23.50;30.90
15543;DHT22;7873;52.230;12.856;2023-02-07T10:14:28;23.50;31.00
15543;DHT22;7873;52.230;12.856;2023-02-07T10:17:17;23.50;30.90
15543;DHT22;7873;52.230;12.856;2023-02-07T10:19:57;23.50;30.90
15543;DHT22;7873;52.230;12.856;2023-02-07T10:22:34;23.50;30.80
15543;DHT22;7873;52.230;12.856;2023-02-07T10:25:18;23.60;30.70
15543;DHT22;7873;52.230;12.856;2023-02-07T10:27:51;23.60;30.70
15543;DHT22;7873;52.230;12.856;2023-02-07T10:30:28;23.60;30.80
15543;DHT22;7873;52.230;12.856;2023-02-07T10:32:59;23.60;30.70
15543;DHT22;7873;52.230;12.856;2023-02-07T10:35:30;23.60;30.70
15543;DHT22;7873;52.230;12.856;2023-02-07T10:38:01;23.60;30.60
15543;DHT22;7873;52.230;12.856;2023-02-07T10:40:29;23.70;30.60
15543;DHT22;7873;52.230;12.856;2023-02-07T10:43:01;23.60;30.70
15543;DHT22;7873;52.230;12.856;2023-02-07T10:45:29;23.60;30.60
15543;DHT22;7873;52.230;12.856;2023-02-07T10:47:56;23.60;30.70
15543;DHT22;7873;52.230;12.856;2023-02-07T10:50:24;23.70;30.70
15543;DHT22;7873;52.230;12.856;2023-02-07T10:52:52;23.60;30.60
15543;DHT22;7873;52.230;12.856;2023-02-07T10:55:33;23.70;30.70
15543;DHT22;7873;52.230;12.856;2023-02-07T10:58:04;23.70;30.60
15543;DHT22;7873;52.230;12.856;2023-02-07T11:00:31;23.70;30.80
15543;DHT22;7873;52.230;12.856;2023-02-07T11:03:02;23.60;30.70
15543;DHT22;7873;52.230;12.856;2023-02-07T11:05:35;23.60;30.80
15543;DHT22;7873;52.230;12.856;2023-02-07T11:08:05;23.60;30.80
15543;DHT22;7873;52.230;12.856;2023-02-07T11:10:44;23.60;30.70
15543;DHT22;7873;52.230;12.856;2023-02-07T11:13:12;23.60;30.90
15543;DHT22;7873;52.230;12.856;2023-02-07T11:15:45;23.60;30.80
15543;DHT22;7873;52.230;12.856;2023-02-07T11:18:25;23.60;30.80
15543;DHT22;7873;52.230;12.856;2023-02-07T11:20:57;23.60;30.90
15543;DHT22;7873;52.230;12.856;2023-02-07T11:23:24;23.60;30.90
15543;DHT22;7873;52.230;12.856;2023-02-07T11:25:53;23.60;30.80
15543;DHT22;7873;52.230;12.856;2023-02-07T11:28:22;23.60;30.70
15543;DHT22;7873;52.230;12.856;2023-02-07T11:30:51;23.70;31.60
15543;DHT22;7873;52.230;12.856;2023-02-07T11:33:24;23.70;30.70
15543;DHT22;7873;52.230;12.856;2023-02-07T11:36:08;23.70;30.80
15543;DHT22;7873;52.230;12.856;2023-02-07T11:38:37;23.70;30.80
15543;DHT22;7873;52.230;12.856;2023-02-07T11:41:09;23.60;30.90
15543;DHT22;7873;52.230;12.856;2023-02-07T11:43:50;23.60;30.90
15543;DHT22;7873;52.230;12.856;2023-02-07T11:46:18;23.60;31.00
15543;DHT22;7873;52.230;12.856;2023-02-07T11:48:46;23.70;31.00
15543;DHT22;7873;52.230;12.856;2023-02-07T11:51:15;23.60;31.00
15543;DHT22;7873;52.230;12.856;2023-02-07T11:53:44;23.70;31.00
15543;DHT22;7873;52.230;12.856;2023-02-07T11:56:28;23.70;31.00
15543;DHT22;7873;52.230;12.856;2023-02-07T11:58:57;23.60;31.00
15543;DHT22;7873;52.230;12.856;2023-02-07T12:01:25;23.70;31.10
15543;DHT22;7873;52.230;12.856;2023-02-07T12:03:55;23.70;31.10
15543;DHT22;7873;52.230;12.856;2023-02-07T12:06:26;23.70;31.10
15543;DHT22;7873;52.230;12.856;2023-02-07T12:08:58;23.70;31.00
15543;DHT22;7873;52.230;12.856;2023-02-07T12:11:27;23.70;31.10
15543;DHT22;7873;52.230;12.856;2023-02-07T12:14:02;23.60;31.10
15543;DHT22;7873;52.230;12.856;2023-02-07T12:16:35;23.70;31.10
15543;DHT22;7873;52.230;12.856;2023-02-07T12:19:09;23.70;31.30
15543;DHT22;7873;52.230;12.856;2023-02-07T12:21:40;23.70;31.10
15543;DHT22;7873;52.230;12.856;2023-02-07T12:24:12;23.70;31.20
15543;DHT22;7873;52.230;12.856;2023-02-07T12:26:46;23.60;31.10
15543;DHT22;7873;52.230;12.856;2023-02-07T12:29:22;23.70;31.20
15543;DHT22;7873;52.230;12.856;2023-02-07T12:31:58;23.60;31.20
15543;DHT22;7873;52.230;12.856;2023-02-07T12:34:29;23.60;31.30
15543;DHT22;7873;52.230;12.856;2023-02-07T12:37:00;23.60;31.30
15543;DHT22;7873;52.230;12.856;2023-02-07T12:39:38;23.60;31.30
15543;DHT22;7873;52.230;12.856;2023-02-07T12:42:15;23.60;31.40
15543;DHT22;7873;52.230;12.856;2023-02-07T12:44:56;23.60;31.40
15543;DHT22;7873;52.230;12.856;2023-02-07T12:47:27;23.60;31.30
15543;DHT22;7873;52.230;12.856;2023-02-07T12:50:10;23.60;31.40
15543;DHT22;7873;52.230;12.856;2023-02-07T12:52:46;23.60;31.40
15543;DHT22;7873;52.230;12.856;2023-02-07T12:55:21;23.60;31.50
15543;DHT22;7873;52.230;12.856;2023-02-07T12:58:04;23.70;31.40
15543;DHT22;7873;52.230;12.856;2023-02-07T13:00:46;23.70;31.50
15543;DHT22;7873;52.230;12.856;2023-02-07T13:03:18;23.70;31.50
15543;DHT22;7873;52.230;12.856;2023-02-07T13:06:03;23.70;31.60
15543;DHT22;7873;52.230;12.856;2023-02-07T13:08:40;23.60;31.60
15543;DHT22;7873;52.230;12.856;2023-02-07T13:11:17;23.70;31.70
15543;DHT22;7873;52.230;12.856;2023-02-07T13:13:56;23.70;31.70
15543;DHT22;7873;52.230;12.856;2023-02-07T13:16:35;23.70;31.60
15543;DHT22;7873;52.230;12.856;2023-02-07T13:19:08;23.70;31.60
15543;DHT22;7873;52.230;12.856;2023-02-07T13:21:43;23.70;31.60
15543;DHT22;7873;52.230;12.856;2023-02-07T13:24:17;23.80;31.70
15543;DHT22;7873;52.230;12.856;2023-02-07T13:26:53;23.70;31.60
15543;DHT22;7873;52.230;12.856;2023-02-07T13:29:23;23.80;31.80
15543;DHT22;7873;52.230;12.856;2023-02-07T13:31:53;23.70;31.90
15543;DHT22;7873;52.230;12.856;2023-02-07T13:34:23;23.80;31.90
15543;DHT22;7873;52.230;12.856;2023-02-07T13:36:53;23.70;31.90
15543;DHT22;7873;52.230;12.856;2023-02-07T13:39:22;23.70;32.10
15543;DHT22;7873;52.230;12.856;2023-02-07T13:42:02;23.70;32.00
15543;DHT22;7873;52.230;12.856;2023-02-07T13:44:41;23.70;32.10
15543;DHT22;7873;52.230;12.856;2023-02-07T13:47:17;23.70;32.10
15543;DHT22;7873;52.230;12.856;2023-02-07T13:49:59;23.70;32.20
15543;DHT22;7873;52.230;12.856;2023-02-07T13:52:33;23.70;32.30
15543;DHT22;7873;52.230;12.856;2023-02-07T13:55:08;23.70;32.00
15543;DHT22;7873;52.230;12.856;2023-02-07T13:57:45;23.80;32.20
15543;DHT22;7873;52.230;12.856;2023-02-07T14:00:32;23.70;32.30
15543;DHT22;7873;52.230;12.856;2023-02-07T14:03:26;23.70;32.30
15543;DHT22;7873;52.230;12.856;2023-02-07T14:06:10;23.70;32.30
15543;DHT22;7873;52.230;12.856;2023-02-07T14:08:41;23.70;32.30
15543;DHT22;7873;52.230;12.856;2023-02-07T14:11:17;23.70;32.30
15543;DHT22;7873;52.230;12.856;2023-02-07T14:14:02;23.70;32.40
15543;DHT22;7873;52.230;12.856;2023-02-07T14:16:42;23.70;32.40
15543;DHT22;7873;52.230;12.856;2023-02-07T14:19:12;23.70;32.40
15543;DHT22;7873;52.230;12.856;2023-02-07T14:21:42;23.80;32.50
15543;DHT22;7873;52.230;12.856;2023-02-07T14:24:16;23.70;33.20
15543;DHT22;7873;52.230;12.856;2023-02-07T14:27:01;23.70;32.60
15543;DHT22;7873;52.230;12.856;2023-02-07T14:32:42;23.70;32.60
15543;DHT22;7873;52.230;12.856;2023-02-07T14:38:19;23.70;32.50
15543;DHT22;7873;52.230;12.856;2023-02-07T14:40:53;23.80;32.50
15543;DHT22;7873;52.230;12.856;2023-02-07T14:43:32;23.80;33.10
15543;DHT22;7873;52.230;12.856;2023-02-07T14:46:06;23.90;32.30
15543;DHT22;7873;52.230;12.856;2023-02-07T14:48:36;23.90;32.20
15543;DHT22;7873;52.230;12.856;2023-02-07T14:51:12;23.90;32.10
15543;DHT22;7873;52.230;12.856;2023-02-07T14:53:42;23.90;32.00
15543;DHT22;7873;52.230;12.856;2023-02-07T14:56:12;23.90;31.90
15543;DHT22;7873;52.230;12.856;2023-02-07T14:58:45;23.90;32.00
15543;DHT22;7873;52.230;12.856;2023-02-07T15:01:16;23.90;31.90
15543;DHT22;7873;52.230;12.856;2023-02-07T15:03:44;23.90;31.90
15543;DHT22;7873;52.230;12.856;2023-02-07T15:06:16;23.90;32.00
15543;DHT22;7873;52.230;12.856;2023-02-07T15:08:53;23.80;32.00
15543;DHT22;7873;52.230;12.856;2023-02-07T15:11:22;23.10;27.70
15543;DHT22;7873;52.230;12.856;2023-02-07T15:13:51;21.30;24.50
15543;DHT22;7873;52.230;12.856;2023-02-07T15:16:21;20.30;27.20
15543;DHT22;7873;52.230;12.856;2023-02-07T15:18:50;20.10;27.30
15543;DHT22;7873;52.230;12.856;2023-02-07T15:21:22;19.90;27.40
15543;DHT22;7873;52.230;12.856;2023-02-07T15:23:56;19.70;27.40
15543;DHT22;7873;52.230;12.856;2023-02-07T15:26:25;19.50;27.50
15543;DHT22;7873;52.230;12.856;2023-02-07T15:28:58;19.30;27.40
15543;DHT22;7873;52.230;12.856;2023-02-07T15:31:26;19.10;27.30
15543;DHT22;7873;52.230;12.856;2023-02-07T15:33:54;18.80;26.20
15543;DHT22;7873;52.230;12.856;2023-02-07T15:36:29;18.40;26.50
15543;DHT22;7873;52.230;12.856;2023-02-07T15:38:58;18.00;26.90
15543;DHT22;7873;52.230;12.856;2023-02-07T15:41:26;17.70;27.60
15543;DHT22;7873;52.230;12.856;2023-02-07T15:43:57;17.40;28.50
15543;DHT22;7873;52.230;12.856;2023-02-07T15:46:25;17.50;28.60
15543;DHT22;7873;52.230;12.856;2023-02-07T15:49:07;17.50;28.60
15543;DHT22;7873;52.230;12.856;2023-02-07T15:51:36;17.50;28.60
15543;DHT22;7873;52.230;12.856;2023-02-07T15:54:11;17.40;28.40
15543;DHT22;7873;52.230;12.856;2023-02-07T15:56:42;17.10;28.40
15543;DHT22;7873;52.230;12.856;2023-02-07T15:59:11;16.80;29.30
15543;DHT22;7873;52.230;12.856;2023-02-07T16:01:44;16.40;29.70
15543;DHT22;7873;52.230;12.856;2023-02-07T16:04:16;16.60;29.40